Terminal Aerodrome Forecast
Issued by NWS

Home | Current Version | Previous Version | Text Only | Print | Product List | Glossary On
Versions: 1 2 3 4 5 6 7 8 9 10 11 12 13 14 15 16 17 18 19
000
FTUS43 KJKL 010401 AAA
TAFSJS
TAF AMD
KSJS 010401Z 0104/0124 VRB03KT 6SM BR VCSH SCT030 BKN080
      TEMPO 0104/0106 1SM +SHRA BR BKN004 OVC030
     FM010600 VRB03KT 4SM -SHRA VCTS OVC020CB
     FM010700 VRB03KT 2SM -SHRA VCTS OVC015CB
     FM011000 VRB03KT 3SM -SHRA OVC030
     FM011400 18004KT P6SM VCTS BKN050CB=

USA.gov is the U.S. government's official web portal to all federal, state and local government web resources and services.